createdAt,value
2018-06-08T00:00:07.142Z,23.59
2018-06-08T00:01:07.085Z,23.63
2018-06-08T00:02:07.112Z,23.42
2018-06-08T00:03:07.081Z,23.42
2018-06-08T00:04:06.709Z,23.38
2018-06-08T00:05:07.091Z,23.31
2018-06-08T00:06:07.072Z,23.34
2018-06-08T00:07:07.114Z,23.19
2018-06-08T00:08:07.071Z,23.31
2018-06-08T00:09:07.086Z,23.22
2018-06-08T00:10:07.086Z,23.32
2018-06-08T00:11:07.096Z,23.42
2018-06-08T00:12:07.067Z,23.31
2018-06-08T00:13:07.147Z,23.38
2018-06-08T00:14:07.102Z,23.38
2018-06-08T00:15:07.124Z,23.21
2018-06-08T00:16:07.105Z,23.26
2018-06-08T00:17:07.108Z,23.38
2018-06-08T00:18:07.106Z,23.14
2018-06-08T00:19:07.122Z,22.94
2018-06-08T00:20:07.207Z,23.00
2018-06-08T00:21:07.125Z,23.12
2018-06-08T00:22:07.224Z,23.03
2018-06-08T00:23:08.977Z,23.04
2018-06-08T00:24:07.203Z,23.03
2018-06-08T00:25:06.812Z,23.03
2018-06-08T00:26:07.210Z,22.94
2018-06-08T00:27:07.238Z,22.93
2018-06-08T00:28:07.196Z,22.78
2018-06-08T00:29:07.187Z,22.81
2018-06-08T00:30:07.172Z,22.82
2018-06-08T00:31:07.270Z,22.61
2018-06-08T00:32:07.290Z,22.64
2018-06-08T00:33:07.139Z,22.76
2018-06-08T00:34:07.141Z,22.78
2018-06-08T00:35:07.138Z,22.81
2018-06-08T00:36:07.144Z,22.88
2018-06-08T00:37:07.800Z,22.86
2018-06-08T00:38:07.130Z,22.76
2018-06-08T00:39:07.166Z,22.91
2018-06-08T00:40:07.095Z,22.89
2018-06-08T00:41:06.820Z,22.75
2018-06-08T00:42:07.148Z,22.84
2018-06-08T00:43:07.167Z,22.60
2018-06-08T00:44:07.131Z,22.52
2018-06-08T00:45:07.205Z,22.60
2018-06-08T00:46:07.161Z,22.56
2018-06-08T00:47:07.196Z,22.75
2018-06-08T00:48:07.290Z,22.60
2018-06-08T00:49:07.259Z,22.66
2018-06-08T00:50:07.245Z,22.20
2018-06-08T00:51:09.071Z,22.31
2018-06-08T00:52:09.086Z,22.27
2018-06-08T00:53:07.322Z,22.49
2018-06-08T00:54:07.241Z,22.49
2018-06-08T00:55:07.398Z,22.39
2018-06-08T00:56:07.298Z,22.36
2018-06-08T00:57:07.257Z,22.20
2018-06-08T00:59:07.300Z,22.24
2018-06-08T01:00:07.193Z,22.17
2018-06-08T01:01:07.166Z,22.12
2018-06-08T01:02:07.164Z,21.94
2018-06-08T01:03:07.159Z,22.01
2018-06-08T01:04:07.228Z,21.99
2018-06-08T01:05:07.237Z,22.11
2018-06-08T01:06:07.230Z,22.01
2018-06-08T01:07:07.219Z,22.14
2018-06-08T01:08:07.221Z,22.08
2018-06-08T01:09:07.185Z,22.06
2018-06-08T01:10:07.209Z,22.06
2018-06-08T01:11:07.187Z,21.99
2018-06-08T01:12:07.224Z,22.14
2018-06-08T01:13:07.237Z,22.20
2018-06-08T01:14:07.274Z,22.15
2018-06-08T01:15:07.404Z,22.14
2018-06-08T01:16:07.259Z,22.14
2018-06-08T01:17:06.914Z,22.23
2018-06-08T01:18:07.416Z,22.14
2018-06-08T01:19:07.453Z,22.14
2018-06-08T01:20:07.461Z,22.09
2018-06-08T01:21:07.820Z,22.02
2018-06-08T01:22:07.383Z,22.08
2018-06-08T01:23:07.440Z,22.05
2018-06-08T01:24:07.426Z,21.89
2018-06-08T01:25:09.210Z,21.98
2018-06-08T01:26:07.429Z,21.90
2018-06-08T01:27:07.402Z,21.98
2018-06-08T01:28:07.317Z,21.98
2018-06-08T01:29:09.103Z,22.04
2018-06-08T01:30:07.338Z,21.98
2018-06-08T01:31:07.344Z,22.12
2018-06-08T01:32:07.320Z,21.89
2018-06-08T01:33:07.324Z,22.08
2018-06-08T01:34:07.304Z,22.01
2018-06-08T01:35:07.266Z,21.90
2018-06-08T01:36:07.409Z,21.93
2018-06-08T01:37:07.362Z,21.75
2018-06-08T01:38:07.369Z,21.81
2018-06-08T01:39:07.323Z,21.79
2018-06-08T01:40:07.678Z,21.79
2018-06-08T01:41:07.424Z,21.74
2018-06-08T01:42:07.413Z,21.81
2018-06-08T01:43:07.454Z,21.61
2018-06-08T01:44:07.417Z,21.70
2018-06-08T01:45:07.390Z,21.71
2018-06-08T01:46:07.381Z,21.53
2018-06-08T01:47:07.457Z,21.49
2018-06-08T01:48:07.482Z,21.59
2018-06-08T01:49:07.370Z,21.68
2018-06-08T01:50:07.530Z,21.63
2018-06-08T01:51:07.685Z,21.55
2018-06-08T01:52:07.696Z,21.64
2018-06-08T01:53:07.722Z,21.70
2018-06-08T01:54:09.472Z,21.63
2018-06-08T01:55:07.615Z,21.68
2018-06-08T01:56:07.583Z,21.73
2018-06-08T01:57:07.601Z,21.71
2018-06-08T01:58:07.625Z,21.66
2018-06-08T01:59:07.652Z,21.74
2018-06-08T02:00:07.708Z,21.71
2018-06-08T02:01:07.634Z,21.77
2018-06-08T02:02:07.655Z,21.81
2018-06-08T02:03:07.651Z,21.64
2018-06-08T02:04:09.472Z,21.70
2018-06-08T02:05:07.625Z,21.52
2018-06-08T02:06:07.652Z,21.56
2018-06-08T02:07:07.649Z,21.56
2018-06-08T02:08:07.680Z,21.59
2018-06-08T02:09:07.666Z,21.70
2018-06-08T02:10:07.677Z,21.46
2018-06-08T02:11:07.670Z,21.45
2018-06-08T02:12:07.629Z,21.45
2018-06-08T02:13:07.678Z,21.61
2018-06-08T02:14:07.692Z,21.68
2018-06-08T02:15:07.693Z,21.73
2018-06-08T02:17:07.691Z,21.52
2018-06-08T02:18:07.676Z,21.51
2018-06-08T02:19:07.668Z,21.49
2018-06-08T02:20:07.630Z,21.51
2018-06-08T02:21:07.660Z,21.64
2018-06-08T02:22:09.483Z,21.58
2018-06-08T02:23:07.547Z,21.61
2018-06-08T02:24:07.592Z,21.61
2018-06-08T02:25:07.677Z,21.63
2018-06-08T02:26:07.626Z,21.46
2018-06-08T02:27:07.660Z,21.37
2018-06-08T02:28:07.642Z,21.43
2018-06-08T02:29:07.631Z,21.38
2018-06-08T02:30:07.654Z,21.48
2018-06-08T02:31:07.620Z,21.56
2018-06-08T02:32:07.629Z,21.53
2018-06-08T02:33:07.640Z,21.46
2018-06-08T02:34:07.665Z,21.33
2018-06-08T02:35:07.700Z,21.31
2018-06-08T02:36:07.674Z,21.37
2018-06-08T02:37:07.675Z,21.45
2018-06-08T02:38:07.673Z,21.49
2018-06-08T02:39:07.692Z,21.53
2018-06-08T02:40:07.629Z,21.37
2018-06-08T02:41:07.685Z,21.45
2018-06-08T02:42:07.634Z,21.46
2018-06-08T02:43:07.660Z,21.52
2018-06-08T02:44:07.688Z,21.56
2018-06-08T02:45:07.717Z,21.55
2018-06-08T02:46:07.170Z,21.68
2018-06-08T02:47:07.655Z,21.58
2018-06-08T02:48:09.883Z,21.49
2018-06-08T02:49:07.665Z,21.43
2018-06-08T02:50:07.636Z,21.49
2018-06-08T02:51:07.635Z,21.37
2018-06-08T02:52:09.911Z,21.42
2018-06-08T02:53:07.654Z,21.45
2018-06-08T02:54:07.649Z,21.51
2018-06-08T02:55:07.651Z,21.52
2018-06-08T02:56:07.616Z,21.49
2018-06-08T02:57:13.651Z,21.45
2018-06-08T02:58:13.848Z,21.30
2018-06-08T02:59:07.663Z,21.38
2018-06-08T03:00:07.117Z,21.28
2018-06-08T03:01:07.692Z,21.36
2018-06-08T03:02:07.674Z,21.26
2018-06-08T03:03:07.659Z,21.28
2018-06-08T03:04:07.663Z,21.31
2018-06-08T03:05:07.708Z,21.38
2018-06-08T03:06:07.692Z,21.40
2018-06-08T03:07:09.528Z,21.40
2018-06-08T03:08:07.709Z,21.43
2018-06-08T03:09:07.702Z,21.36
2018-06-08T03:10:07.709Z,21.37
2018-06-08T03:11:07.696Z,21.48
2018-06-08T03:12:07.730Z,21.40
2018-06-08T03:13:07.715Z,21.36
2018-06-08T03:14:07.631Z,21.28
2018-06-08T03:15:07.688Z,21.45
2018-06-08T03:16:07.679Z,21.38
2018-06-08T03:17:07.674Z,21.38
2018-06-08T03:18:07.695Z,21.24
2018-06-08T03:19:07.766Z,21.33
2018-06-08T03:20:07.697Z,21.43
2018-06-08T03:21:07.685Z,21.42
2018-06-08T03:22:07.637Z,21.48
2018-06-08T03:23:07.201Z,21.52
2018-06-08T03:24:07.691Z,21.46
2018-06-08T03:25:07.699Z,21.45
2018-06-08T03:26:07.717Z,21.51
2018-06-08T03:27:07.693Z,21.53
2018-06-08T03:28:07.726Z,21.42
2018-06-08T03:29:07.691Z,21.52
2018-06-08T03:30:07.709Z,21.42
2018-06-08T03:31:07.677Z,21.40
2018-06-08T03:32:09.860Z,21.42
2018-06-08T03:33:07.710Z,21.42
2018-06-08T03:34:07.201Z,21.36
2018-06-08T03:35:07.735Z,21.46
2018-06-08T03:36:07.690Z,21.45
2018-06-08T03:37:07.720Z,21.45
2018-06-08T03:38:07.775Z,21.36
2018-06-08T03:39:07.712Z,21.43
2018-06-08T03:40:07.706Z,21.24
2018-06-08T03:41:07.243Z,21.38
2018-06-08T03:42:07.688Z,21.36
2018-06-08T03:43:07.683Z,21.27
2018-06-08T03:44:07.691Z,21.42
2018-06-08T03:45:07.685Z,21.49
2018-06-08T03:46:07.687Z,21.43
2018-06-08T03:47:07.681Z,21.45
2018-06-08T03:48:07.387Z,21.34
2018-06-08T03:49:07.658Z,21.48
2018-06-08T03:50:08.224Z,21.59
2018-06-08T03:51:07.702Z,21.40
2018-06-08T03:52:07.701Z,21.38
2018-06-08T03:53:09.720Z,21.42
2018-06-08T03:54:07.711Z,21.51
2018-06-08T03:55:07.924Z,21.53
2018-06-08T03:56:07.673Z,21.55
2018-06-08T03:57:07.902Z,21.55
2018-06-08T03:58:07.700Z,21.48
2018-06-08T03:59:07.270Z,21.55
2018-06-08T04:00:07.907Z,21.55
2018-06-08T04:01:07.906Z,21.59
2018-06-08T04:02:08.018Z,21.49
2018-06-08T04:03:07.907Z,21.46
2018-06-08T04:04:07.891Z,21.55
2018-06-08T04:05:07.895Z,21.51
2018-06-08T04:06:07.890Z,21.45
2018-06-08T04:07:07.912Z,21.27
2018-06-08T04:08:07.986Z,21.19
2018-06-08T04:09:07.388Z,21.28
2018-06-08T04:10:07.751Z,21.22
2018-06-08T04:11:07.686Z,21.33
2018-06-08T04:12:07.703Z,21.38
2018-06-08T04:13:07.932Z,21.27
2018-06-08T04:14:07.717Z,21.42
2018-06-08T04:15:07.699Z,21.30
2018-06-08T04:16:07.730Z,21.27
2018-06-08T04:17:07.782Z,21.42
2018-06-08T04:18:07.768Z,21.33
2018-06-08T04:19:07.675Z,21.40
2018-06-08T04:20:07.722Z,21.51
2018-06-08T04:21:07.755Z,21.49
2018-06-08T04:22:08.228Z,21.45
2018-06-08T04:23:07.993Z,21.42
2018-06-08T04:24:07.332Z,21.36
2018-06-08T04:25:07.758Z,21.42
2018-06-08T04:26:07.754Z,21.46
2018-06-08T04:27:07.362Z,21.45
2018-06-08T04:28:07.773Z,21.45
2018-06-08T04:29:07.769Z,21.37
2018-06-08T04:30:07.739Z,21.42
2018-06-08T04:31:07.759Z,21.46
2018-06-08T04:32:07.813Z,21.46
2018-06-08T04:33:07.782Z,21.45
2018-06-08T04:34:07.866Z,21.40
2018-06-08T04:35:07.837Z,21.46
2018-06-08T04:36:07.795Z,21.33
2018-06-08T04:37:07.732Z,21.48
2018-06-08T04:38:07.700Z,21.45
2018-06-08T04:39:07.640Z,21.48
2018-06-08T04:40:07.796Z,21.56
2018-06-08T04:41:07.715Z,21.55
2018-06-08T04:42:08.257Z,21.63
2018-06-08T04:43:08.243Z,21.59
2018-06-08T04:44:07.901Z,21.61
2018-06-08T04:45:07.922Z,21.58
2018-06-08T04:46:07.905Z,21.52
2018-06-08T04:47:07.923Z,21.63
2018-06-08T04:48:08.245Z,21.58
2018-06-08T04:49:07.383Z,21.56
2018-06-08T04:50:07.745Z,21.64
2018-06-08T04:51:07.724Z,21.67
2018-06-08T04:52:07.746Z,21.53
2018-06-08T04:53:07.809Z,21.71
2018-06-08T04:54:07.735Z,21.63
2018-06-08T04:55:07.760Z,21.73
2018-06-08T04:56:07.766Z,21.67
2018-06-08T04:57:07.734Z,21.67
2018-06-08T04:58:07.747Z,21.63
2018-06-08T04:59:07.745Z,21.67
2018-06-08T05:00:09.617Z,21.61
2018-06-08T05:01:07.506Z,21.64
2018-06-08T05:02:07.761Z,21.56
2018-06-08T05:03:07.860Z,21.58
2018-06-08T05:04:08.432Z,21.55
2018-06-08T05:05:07.416Z,21.63
2018-06-08T05:06:07.778Z,21.58
2018-06-08T05:07:07.912Z,21.56
2018-06-08T05:08:08.020Z,21.63
2018-06-08T05:09:08.248Z,21.71
2018-06-08T05:10:07.931Z,21.81
2018-06-08T05:11:07.788Z,21.85
2018-06-08T05:12:08.268Z,21.94
2018-06-08T05:13:07.805Z,21.79
2018-06-08T05:14:07.792Z,21.89
2018-06-08T05:15:08.033Z,21.93
2018-06-08T05:16:08.255Z,21.90
2018-06-08T05:17:07.966Z,21.82
2018-06-08T05:18:08.253Z,21.79
2018-06-08T05:19:07.966Z,21.73
2018-06-08T05:20:07.886Z,21.64
2018-06-08T05:21:08.168Z,21.85
2018-06-08T05:22:08.271Z,21.71
2018-06-08T05:23:09.770Z,21.59
2018-06-08T05:24:07.920Z,21.67
2018-06-08T05:25:07.973Z,21.77
2018-06-08T05:26:07.970Z,21.63
2018-06-08T05:27:07.942Z,21.73
2018-06-08T05:28:08.271Z,21.67
2018-06-08T05:29:07.975Z,21.81
2018-06-08T05:30:08.299Z,21.81
2018-06-08T05:31:08.408Z,21.83
2018-06-08T05:32:07.974Z,21.90
2018-06-08T05:33:07.949Z,21.89
2018-06-08T05:34:14.472Z,21.81
2018-06-08T05:35:14.284Z,21.91
2018-06-08T05:36:07.547Z,21.82
2018-06-08T05:37:08.061Z,21.96
2018-06-08T05:38:08.468Z,21.96
2018-06-08T05:39:07.763Z,21.99
2018-06-08T05:40:07.895Z,21.85
2018-06-08T05:41:08.368Z,21.86
2018-06-08T05:42:08.000Z,21.85
2018-06-08T05:43:07.929Z,21.90
2018-06-08T05:44:07.938Z,22.02
2018-06-08T05:45:07.923Z,22.06
2018-06-08T05:46:08.283Z,22.15
2018-06-08T05:47:09.994Z,22.17
2018-06-08T05:48:07.971Z,22.17
2018-06-08T05:49:08.232Z,21.83
2018-06-08T05:50:08.285Z,21.91
2018-06-08T05:51:07.959Z,22.11
2018-06-08T05:52:07.929Z,22.05
2018-06-08T05:53:07.874Z,22.15
2018-06-08T05:54:07.938Z,22.33
2018-06-08T05:55:08.452Z,22.33
2018-06-08T05:56:08.212Z,22.33
2018-06-08T05:57:07.979Z,22.35
2018-06-08T05:58:08.042Z,22.29
2018-06-08T05:59:08.521Z,22.31
2018-06-08T06:00:08.261Z,22.41
2018-06-08T06:01:07.977Z,22.35
2018-06-08T06:02:07.974Z,22.41
2018-06-08T06:03:08.446Z,22.42
2018-06-08T06:04:07.935Z,22.52
2018-06-08T06:05:07.982Z,22.45
2018-06-08T06:06:10.033Z,22.46
2018-06-08T06:07:07.941Z,22.45
2018-06-08T06:08:07.969Z,22.51
2018-06-08T06:09:08.352Z,22.38
2018-06-08T06:10:07.570Z,22.46
2018-06-08T06:11:08.479Z,22.51
2018-06-08T06:12:10.107Z,22.57
2018-06-08T06:13:08.237Z,22.57
2018-06-08T06:14:07.958Z,22.52
2018-06-08T06:15:08.582Z,22.70
2018-06-08T06:16:07.783Z,22.79
2018-06-08T06:17:08.172Z,22.79
2018-06-08T06:18:08.464Z,22.74
2018-06-08T06:19:08.357Z,22.60
2018-06-08T06:20:07.904Z,22.64
2018-06-08T06:21:08.048Z,22.57
2018-06-08T06:22:08.337Z,22.63
2018-06-08T06:23:08.096Z,22.61
2018-06-08T06:24:08.442Z,22.66
2018-06-08T06:25:09.986Z,22.54
2018-06-08T06:26:07.994Z,22.64
2018-06-08T06:27:08.237Z,22.67
2018-06-08T06:28:08.260Z,22.57
2018-06-08T06:29:08.521Z,22.61
2018-06-08T06:30:08.266Z,22.69
2018-06-08T06:31:08.292Z,22.76
2018-06-08T06:32:08.790Z,22.67
2018-06-08T06:33:07.951Z,22.66
2018-06-08T06:34:08.487Z,22.61
2018-06-08T06:35:08.447Z,22.63
2018-06-08T06:36:08.528Z,22.60
2018-06-08T06:37:08.046Z,22.74
2018-06-08T06:38:08.468Z,22.76
2018-06-08T06:39:08.014Z,22.61
2018-06-08T06:40:08.982Z,22.51
2018-06-08T06:41:08.454Z,22.49
2018-06-08T06:42:08.465Z,22.59
2018-06-08T06:43:10.099Z,22.59
2018-06-08T06:44:08.801Z,22.70
2018-06-08T06:45:08.906Z,22.61
2018-06-08T06:46:08.861Z,22.78
2018-06-08T06:47:08.450Z,22.78
2018-06-08T06:48:08.818Z,22.64
2018-06-08T06:49:08.478Z,22.69
2018-06-08T06:50:08.528Z,22.79
2018-06-08T06:51:08.005Z,22.79
2018-06-08T06:52:08.032Z,22.67
2018-06-08T06:53:08.849Z,22.69
2018-06-08T06:54:08.813Z,22.64
2018-06-08T06:55:08.560Z,22.64
2018-06-08T06:56:08.625Z,22.60
2018-06-08T06:57:08.312Z,22.69
2018-06-08T06:58:08.358Z,22.69
2018-06-08T06:59:08.779Z,22.66
2018-06-08T07:00:08.977Z,22.74
2018-06-08T07:01:08.810Z,22.82
2018-06-08T07:02:08.818Z,22.79
2018-06-08T07:03:08.572Z,22.84
2018-06-08T07:04:08.564Z,22.84
2018-06-08T07:05:08.504Z,22.85
2018-06-08T07:06:08.510Z,22.97
2018-06-08T07:07:08.549Z,22.84
2018-06-08T07:08:08.468Z,22.91
2018-06-08T07:09:08.489Z,22.94
2018-06-08T07:10:08.557Z,22.85
2018-06-08T07:11:08.542Z,22.88
2018-06-08T07:12:10.541Z,22.79
2018-06-08T07:13:08.800Z,22.89
2018-06-08T07:14:08.523Z,22.88
2018-06-08T07:15:09.011Z,22.96
2018-06-08T07:16:08.805Z,22.81
2018-06-08T07:17:08.063Z,22.97
2018-06-08T07:18:08.603Z,23.01
2018-06-08T07:19:08.046Z,22.86
2018-06-08T07:20:08.007Z,22.94
2018-06-08T07:21:08.532Z,22.99
2018-06-08T07:22:08.801Z,23.00
2018-06-08T07:23:07.801Z,22.91
2018-06-08T07:24:08.536Z,22.89
2018-06-08T07:25:08.895Z,22.96
2018-06-08T07:26:08.517Z,22.93
2018-06-08T07:27:08.470Z,22.88
2018-06-08T07:28:08.569Z,22.89
2018-06-08T07:29:08.557Z,23.03
2018-06-08T07:30:08.072Z,22.93
2018-06-08T07:31:08.306Z,22.99
2018-06-08T07:32:08.265Z,22.91
2018-06-08T07:33:08.565Z,22.91
2018-06-08T07:34:08.333Z,22.91
2018-06-08T07:35:08.449Z,22.88
2018-06-08T07:36:07.972Z,22.86
2018-06-08T07:37:08.493Z,22.93
2018-06-08T07:38:08.956Z,23.07
2018-06-08T07:39:13.554Z,23.15
2018-06-08T07:40:08.328Z,23.14
2018-06-08T07:41:08.981Z,23.12
2018-06-08T07:42:08.833Z,23.11
2018-06-08T07:43:08.472Z,23.11
2018-06-08T07:44:07.821Z,23.16
2018-06-08T07:45:10.110Z,23.22
2018-06-08T07:46:08.473Z,23.23
2018-06-08T07:47:08.472Z,23.22
2018-06-08T07:48:08.474Z,23.25
2018-06-08T07:49:08.481Z,23.14
2018-06-08T07:50:08.929Z,23.23
2018-06-08T07:51:08.522Z,23.11
2018-06-08T07:52:07.965Z,23.25
2018-06-08T07:53:08.879Z,23.29
2018-06-08T07:54:08.825Z,23.38
2018-06-08T07:55:08.418Z,23.31
2018-06-08T07:56:08.506Z,23.25
2018-06-08T07:57:08.463Z,23.42
2018-06-08T07:58:08.826Z,23.39
2018-06-08T07:59:08.999Z,23.37
2018-06-08T08:00:08.233Z,23.29
2018-06-08T08:01:08.540Z,23.44
2018-06-08T08:02:08.860Z,23.37
2018-06-08T08:03:08.859Z,23.35
2018-06-08T08:04:07.896Z,23.42
2018-06-08T08:05:08.593Z,23.41
2018-06-08T08:06:08.401Z,23.38
2018-06-08T08:07:08.574Z,23.34
2018-06-08T08:08:07.871Z,23.49
2018-06-08T08:09:08.843Z,23.44
2018-06-08T08:10:08.508Z,23.41
2018-06-08T08:11:07.989Z,23.23
2018-06-08T08:12:09.000Z,23.22
2018-06-08T08:13:08.542Z,23.06
2018-06-08T08:14:08.991Z,23.16
2018-06-08T08:15:08.371Z,23.18
2018-06-08T08:16:08.901Z,23.11
2018-06-08T08:17:08.866Z,23.26
2018-06-08T08:18:09.018Z,23.49
2018-06-08T08:19:08.491Z,23.34
2018-06-08T08:20:08.587Z,23.35
2018-06-08T08:21:08.391Z,23.38
2018-06-08T08:22:08.819Z,23.12
2018-06-08T08:23:08.458Z,23.21
2018-06-08T08:24:08.556Z,23.23
2018-06-08T08:25:08.704Z,23.26
2018-06-08T08:26:09.057Z,23.39
2018-06-08T08:27:08.130Z,23.29
2018-06-08T08:28:08.364Z,23.25
2018-06-08T08:29:08.992Z,23.25
2018-06-08T08:30:08.529Z,23.18
2018-06-08T08:31:08.975Z,23.31
2018-06-08T08:32:08.566Z,23.22
2018-06-08T08:33:08.753Z,23.29
2018-06-08T08:34:08.596Z,23.23
2018-06-08T08:35:08.842Z,23.18
2018-06-08T08:36:07.983Z,23.25
2018-06-08T08:37:08.553Z,23.38
2018-06-08T08:38:08.832Z,23.41
2018-06-08T08:39:08.110Z,23.47
2018-06-08T08:40:09.501Z,23.22
2018-06-08T08:41:10.738Z,23.34
2018-06-08T08:42:08.085Z,23.45
2018-06-08T08:43:10.858Z,23.21
2018-06-08T08:44:08.861Z,23.23
2018-06-08T08:45:08.546Z,23.26
2018-06-08T08:46:09.055Z,23.37
2018-06-08T08:47:08.065Z,23.26
2018-06-08T08:48:08.501Z,23.35
2018-06-08T08:49:08.457Z,23.21
2018-06-08T08:50:08.921Z,23.23
2018-06-08T08:51:08.851Z,23.37
2018-06-08T08:52:08.582Z,23.39
2018-06-08T08:53:08.162Z,23.39
2018-06-08T08:54:09.166Z,23.35
2018-06-08T08:55:08.554Z,23.21
2018-06-08T08:56:08.710Z,23.22
2018-06-08T08:57:08.594Z,23.18
2018-06-08T08:58:08.510Z,23.23
2018-06-08T08:59:10.169Z,23.31
2018-06-08T09:00:08.755Z,23.38
2018-06-08T09:01:08.482Z,23.56
2018-06-08T09:02:09.111Z,23.50
2018-06-08T09:03:08.590Z,23.50
2018-06-08T09:04:08.808Z,23.62
2018-06-08T09:05:08.579Z,23.59
2018-06-08T09:06:08.169Z,23.53
2018-06-08T09:07:09.055Z,23.53
2018-06-08T09:08:08.568Z,23.31
2018-06-08T09:09:08.573Z,23.35
2018-06-08T09:10:10.516Z,23.39
2018-06-08T09:11:14.609Z,23.31
2018-06-08T09:12:14.895Z,23.22
2018-06-08T09:13:10.858Z,23.29
2018-06-08T09:14:08.946Z,23.32
2018-06-08T09:15:08.756Z,23.32
2018-06-08T09:16:09.093Z,23.42
2018-06-08T09:17:08.447Z,23.45
2018-06-08T09:18:08.886Z,23.41
2018-06-08T09:19:08.883Z,23.29
2018-06-08T09:20:08.467Z,23.22
2018-06-08T09:21:09.085Z,23.21
2018-06-08T09:22:08.523Z,23.26
2018-06-08T09:23:08.582Z,23.21
2018-06-08T09:24:08.524Z,23.41
2018-06-08T09:25:08.875Z,23.34
2018-06-08T09:26:09.102Z,23.41
2018-06-08T09:27:09.074Z,23.21
2018-06-08T09:28:09.022Z,23.31
2018-06-08T09:29:09.100Z,23.34
2018-06-08T09:30:09.073Z,23.12
2018-06-08T09:31:08.563Z,23.19
2018-06-08T09:32:08.594Z,23.19
2018-06-08T09:33:08.913Z,23.19
2018-06-08T09:34:09.219Z,23.23
2018-06-08T09:35:09.030Z,23.31
2018-06-08T09:36:09.063Z,23.54
2018-06-08T09:37:09.097Z,23.59
2018-06-08T09:38:08.589Z,23.62
2018-06-08T09:39:08.789Z,23.50
2018-06-08T09:40:08.574Z,23.44
2018-06-08T09:41:09.030Z,23.47
2018-06-08T09:42:08.832Z,23.49
2018-06-08T09:43:09.080Z,23.71
2018-06-08T09:44:09.375Z,23.54
2018-06-08T09:45:08.830Z,23.34
2018-06-08T09:46:08.908Z,23.16
2018-06-08T09:47:09.387Z,23.19
2018-06-08T09:48:08.639Z,23.18
2018-06-08T09:49:08.890Z,23.11
2018-06-08T09:50:09.371Z,23.07
2018-06-08T09:51:08.586Z,23.11
2018-06-08T09:52:09.413Z,23.21
2018-06-08T09:53:08.855Z,23.21
2018-06-08T09:54:08.899Z,23.07
2018-06-08T09:55:09.561Z,23.19
2018-06-08T09:56:09.005Z,23.19
2018-06-08T09:57:08.833Z,23.21
2018-06-08T09:58:09.035Z,23.15
2018-06-08T09:59:09.419Z,23.29
2018-06-08T10:00:09.362Z,23.37
2018-06-08T10:01:09.112Z,23.39
2018-06-08T10:02:09.152Z,23.35
2018-06-08T10:03:09.042Z,23.45
2018-06-08T10:04:09.461Z,23.35
2018-06-08T10:05:09.120Z,23.19
2018-06-08T10:06:08.638Z,23.15
2018-06-08T10:07:09.083Z,23.16
2018-06-08T10:08:09.046Z,23.26
2018-06-08T10:09:09.116Z,23.07
2018-06-08T10:10:09.039Z,23.25
2018-06-08T10:11:09.441Z,23.21
2018-06-08T10:12:08.404Z,23.21
2018-06-08T10:13:09.381Z,23.06
2018-06-08T10:14:09.139Z,23.06
2018-06-08T10:15:09.291Z,23.00
2018-06-08T10:16:08.541Z,23.09
2018-06-08T10:17:08.792Z,22.97
2018-06-08T10:18:09.114Z,23.07
2018-06-08T10:20:09.131Z,23.03
2018-06-08T10:21:09.563Z,22.86
2018-06-08T10:22:08.589Z,22.93
2018-06-08T10:23:09.482Z,23.01
2018-06-08T10:24:09.089Z,23.04
2018-06-08T10:25:09.119Z,23.07
2018-06-08T10:26:08.460Z,23.04
2018-06-08T10:27:09.380Z,22.97
2018-06-08T10:28:08.608Z,23.15
2018-06-08T10:29:08.952Z,23.09
2018-06-08T10:30:09.394Z,22.91
2018-06-08T10:31:09.392Z,22.96
2018-06-08T10:32:09.592Z,22.96
2018-06-08T10:33:09.405Z,22.94
2018-06-08T10:34:08.895Z,22.91
2018-06-08T10:35:08.827Z,22.96
2018-06-08T10:36:09.143Z,22.93
2018-06-08T10:37:09.005Z,22.89
2018-06-08T10:38:09.140Z,22.85
2018-06-08T10:39:09.393Z,22.96
2018-06-08T10:40:09.177Z,22.89
2018-06-08T10:41:09.052Z,22.76
2018-06-08T10:42:09.574Z,22.59
2018-06-08T10:43:08.472Z,22.61
2018-06-08T10:44:09.419Z,22.81
2018-06-08T10:45:09.425Z,22.82
2018-06-08T10:46:08.801Z,22.82
2018-06-08T10:47:09.137Z,22.94
2018-06-08T10:48:09.393Z,22.76
2018-06-08T10:49:09.058Z,22.79
2018-06-08T10:50:11.060Z,22.79
2018-06-08T10:51:09.131Z,22.70
2018-06-08T10:52:09.764Z,22.72
2018-06-08T10:53:08.836Z,22.67
2018-06-08T10:54:09.035Z,22.61
2018-06-08T10:55:09.493Z,22.54
2018-06-08T10:56:08.973Z,22.60
2018-06-08T10:57:09.428Z,22.59
2018-06-08T10:58:08.565Z,22.64
2018-06-08T10:59:09.064Z,22.61
2018-06-08T11:00:09.168Z,22.52
2018-06-08T11:01:08.607Z,22.51
2018-06-08T11:02:09.409Z,22.31
2018-06-08T11:03:09.707Z,22.19
2018-06-08T11:04:09.515Z,22.24
2018-06-08T11:05:08.874Z,22.35
2018-06-08T11:06:09.067Z,22.29
2018-06-08T11:07:09.065Z,22.30
2018-06-08T11:08:09.566Z,22.38
2018-06-08T11:09:09.168Z,22.46
2018-06-08T11:10:09.005Z,22.52
2018-06-08T11:11:09.100Z,22.51
2018-06-08T11:12:08.960Z,22.31
2018-06-08T11:13:08.891Z,22.20
2018-06-08T11:14:09.143Z,22.20
2018-06-08T11:15:09.437Z,22.19
2018-06-08T11:16:09.851Z,22.11
2018-06-08T11:17:09.090Z,22.09
2018-06-08T11:18:09.403Z,22.06
2018-06-08T11:19:09.066Z,22.01
2018-06-08T11:20:09.573Z,21.93
2018-06-08T11:21:08.916Z,21.83
2018-06-08T11:22:09.503Z,21.79
2018-06-08T11:23:08.864Z,21.90
2018-06-08T11:24:08.900Z,21.94
2018-06-08T11:25:09.112Z,21.90
2018-06-08T11:26:10.816Z,21.96
2018-06-08T11:27:08.990Z,21.91
2018-06-08T11:28:09.419Z,21.89
2018-06-08T11:29:09.137Z,21.90
2018-06-08T11:30:09.458Z,21.96
2018-06-08T11:31:09.218Z,21.89
2018-06-08T11:32:09.368Z,21.90
2018-06-08T11:33:08.880Z,21.79
2018-06-08T11:34:12.652Z,21.61
2018-06-08T11:35:08.958Z,21.56
2018-06-08T11:36:09.731Z,21.38
2018-06-08T11:37:10.934Z,21.46
2018-06-08T11:38:10.097Z,21.51
2018-06-08T11:39:10.979Z,21.58
2018-06-08T11:40:09.479Z,21.55
2018-06-08T11:41:09.541Z,21.52
2018-06-08T11:42:09.356Z,21.64
2018-06-08T11:43:09.217Z,21.61
2018-06-08T11:44:09.661Z,21.63
2018-06-08T11:45:08.948Z,21.70
2018-06-08T11:46:28.546Z,21.59
2018-06-08T11:47:08.956Z,21.63
2018-06-08T11:48:07.524Z,21.56
2018-06-08T11:49:08.899Z,21.53
2018-06-08T11:50:08.552Z,21.55
2018-06-08T11:51:10.829Z,21.52
2018-06-08T11:52:09.119Z,21.43
2018-06-08T11:53:08.684Z,21.36
2018-06-08T11:54:08.598Z,21.40
2018-06-08T11:55:09.023Z,21.48
2018-06-08T11:56:08.662Z,21.43
2018-06-08T11:57:09.162Z,21.46
2018-06-08T11:58:09.108Z,21.45
2018-06-08T11:59:08.662Z,21.49
2018-06-08T12:00:09.275Z,21.48
2018-06-08T12:01:10.770Z,21.46
2018-06-08T12:02:08.969Z,21.48
2018-06-08T12:03:09.022Z,21.45
2018-06-08T12:04:08.652Z,21.36
2018-06-08T12:05:09.526Z,21.43
2018-06-08T12:07:40.699Z,21.22
2018-06-08T12:08:42.068Z,21.09
2018-06-08T12:10:37.594Z,21.16
2018-06-08T12:11:36.963Z,21.00
2018-06-08T12:13:30.573Z,21.12
2018-06-08T12:14:30.889Z,21.05
2018-06-08T12:16:24.722Z,21.06
2018-06-08T12:17:25.987Z,21.16
2018-06-08T12:19:18.609Z,21.19
2018-06-08T12:20:18.671Z,21.12
2018-06-08T12:22:13.393Z,21.05
2018-06-08T12:23:13.404Z,20.94
2018-06-08T12:24:13.596Z,20.93
2018-06-08T12:25:13.896Z,21.15
2018-06-08T12:26:13.880Z,21.30
2018-06-08T12:27:13.427Z,21.05
2018-06-08T12:28:14.042Z,21.01
2018-06-08T12:29:13.280Z,21.00
2018-06-08T12:30:13.101Z,20.79
2018-06-08T12:31:14.077Z,20.90
2018-06-08T12:32:13.403Z,20.90
2018-06-08T12:33:13.615Z,21.08
2018-06-08T12:34:13.380Z,21.13
2018-06-08T12:35:13.385Z,21.15
2018-06-08T12:36:13.622Z,20.91
2018-06-08T12:37:13.536Z,21.08
2018-06-08T12:38:13.933Z,21.33
2018-06-08T12:39:13.004Z,21.36
2018-06-08T12:40:14.144Z,21.24
2018-06-08T12:41:13.560Z,21.26
2018-06-08T12:42:13.668Z,21.06
2018-06-08T12:43:14.173Z,21.16
2018-06-08T12:44:13.110Z,21.11
2018-06-08T12:45:15.547Z,21.13
2018-06-08T12:46:13.471Z,21.30
2018-06-08T12:47:13.476Z,21.31
2018-06-08T12:48:14.217Z,21.34
2018-06-08T12:49:13.420Z,21.19
2018-06-08T12:50:13.894Z,21.37
2018-06-08T12:51:13.565Z,21.46
2018-06-08T12:52:13.578Z,21.55
2018-06-08T12:53:13.472Z,21.45
2018-06-08T12:54:13.564Z,21.48
2018-06-08T12:55:13.444Z,21.48
2018-06-08T12:56:13.836Z,21.53
2018-06-08T12:57:12.977Z,21.61
2018-06-08T12:58:13.907Z,21.38
2018-06-08T12:59:13.243Z,21.37
2018-06-08T13:00:14.573Z,21.46
2018-06-08T13:01:13.473Z,21.59